Time;durP1;ratioP1;P1;durP2;ratioP2;P2;SDS_P1;SDS_P2;PMS_P1;PMS_P2;Temp;Humidity;BMP_temperature;BMP_pressure;BME280_temperature;BME280_humidity;BME280_pressure;Samples;Min_cycle;Max_cycle;Signal;HPM_P1;HPM_P2
2023/09/07 00:00:34;;;;;;;14.43;7.25;;;;;;;18.33;100.00;101823.66;5189187;28;20033;-69
2023/09/07 00:03:05;;;;;;;11.40;6.47;;;;;;;18.30;100.00;101823.22;5195330;28;20437;-70
2023/09/07 00:05:35;;;;;;;13.70;7.40;;;;;;;18.24;100.00;101822.09;5191742;28;20033;-70
2023/09/07 00:08:06;;;;;;;11.95;7.35;;;;;;;18.20;100.00;101817.25;5193137;28;20364;-70
2023/09/07 00:10:36;;;;;;;14.20;7.70;;;;;;;18.10;100.00;101818.41;5187835;28;20037;-70
2023/09/07 00:13:07;;;;;;;11.77;7.40;;;;;;;18.07;100.00;101815.22;5189262;28;20036;-70
2023/09/07 00:15:38;;;;;;;12.15;6.85;;;;;;;17.98;100.00;101816.41;5187614;28;20479;-69
2023/09/07 00:18:09;;;;;;;12.68;7.93;;;;;;;17.96;100.00;101813.84;5199796;28;20026;-70
2023/09/07 00:20:40;;;;;;;14.23;7.80;;;;;;;17.91;100.00;101810.03;5193765;28;20386;-70
2023/09/07 00:23:11;;;;;;;13.82;8.30;;;;;;;17.85;100.00;101815.19;5186197;28;20037;-70
2023/09/07 00:25:41;;;;;;;12.98;7.85;;;;;;;17.77;100.00;101809.91;5188915;28;20033;-70
2023/09/07 00:28:12;;;;;;;14.27;8.25;;;;;;;17.67;100.00;101808.44;5191043;28;20084;-70
2023/09/07 00:30:42;;;;;;;12.35;7.63;;;;;;;17.57;100.00;101825.03;5196503;28;20025;-70
2023/09/07 00:33:13;;;;;;;17.83;7.57;;;;;;;17.48;100.00;101821.59;5196719;28;20113;-69
2023/09/07 00:35:43;;;;;;;13.20;7.80;;;;;;;17.43;100.00;101823.19;5197673;28;20513;-70
2023/09/07 00:38:14;;;;;;;13.18;7.20;;;;;;;17.35;100.00;101815.97;5200169;28;20025;-70
2023/09/07 00:40:46;;;;;;;13.70;8.43;;;;;;;17.28;100.00;101815.06;5196710;28;20037;-70
2023/09/07 00:43:16;;;;;;;12.63;7.43;;;;;;;17.21;100.00;101812.22;5190735;28;20467;-70
2023/09/07 00:45:47;;;;;;;14.27;8.10;;;;;;;17.15;100.00;101812.97;5200122;28;20033;-70
2023/09/07 00:48:17;;;;;;;11.68;7.00;;;;;;;17.06;100.00;101812.22;5191333;28;20418;-70
2023/09/07 00:50:48;;;;;;;10.75;7.05;;;;;;;17.02;100.00;101815.50;5201438;28;20104;-70
2023/09/07 00:53:19;;;;;;;14.80;7.35;;;;;;;17.02;100.00;101810.09;5188433;28;20039;-70
2023/09/07 00:55:49;;;;;;;13.52;8.35;;;;;;;17.01;100.00;101808.38;5195084;28;20386;-70
2023/09/07 00:58:21;;;;;;;14.57;7.15;;;;;;;16.98;100.00;101817.75;5185787;28;20368;-70
2023/09/07 01:00:51;;;;;;;12.05;7.43;;;;;;;16.95;100.00;101811.84;5190979;28;20041;-70
2023/09/07 01:03:22;;;;;;;13.43;7.70;;;;;;;16.94;100.00;101813.72;5198775;28;20040;-72
2023/09/07 01:05:58;;;;;;;13.50;8.13;;;;;;;16.92;100.00;101812.19;5184853;28;20064;-70
2023/09/07 01:08:36;;;;;;;13.65;7.60;;;;;;;16.88;100.00;101802.78;5192766;28;20030;-70
2023/09/07 01:11:14;;;;;;;15.07;8.52;;;;;;;16.83;100.00;101801.44;5193289;28;20037;-69
2023/09/07 01:13:45;;;;;;;14.02;8.18;;;;;;;16.85;100.00;101795.00;5183383;28;20036;-70
2023/09/07 01:16:16;;;;;;;17.80;8.60;;;;;;;16.84;100.00;101799.59;5193787;28;20293;-70
2023/09/07 01:18:47;;;;;;;13.95;8.35;;;;;;;16.83;100.00;101793.31;5189922;28;20033;-70
2023/09/07 01:21:18;;;;;;;16.92;8.60;;;;;;;16.84;100.00;101791.44;5187739;28;20478;-70
2023/09/07 01:23:50;;;;;;;14.40;7.78;;;;;;;16.85;100.00;101786.88;5190711;28;20022;-70
2023/09/07 01:26:21;;;;;;;14.50;8.55;;;;;;;16.85;100.00;101797.72;5186498;28;20091;-70
2023/09/07 01:28:51;;;;;;;10.98;7.85;;;;;;;16.83;100.00;101785.19;5194394;28;20021;-70
2023/09/07 01:31:22;;;;;;;11.60;8.75;;;;;;;16.85;100.00;101785.00;5191225;28;20037;-70
2023/09/07 01:33:52;;;;;;;13.07;8.07;;;;;;;16.83;100.00;101792.47;5190589;28;20403;-70
2023/09/07 01:36:23;;;;;;;14.45;8.50;;;;;;;16.82;100.00;101794.34;5185807;28;20103;-70
2023/09/07 01:38:53;;;;;;;12.48;8.20;;;;;;;16.82;100.00;101780.81;5190541;28;20033;-70
2023/09/07 01:41:24;;;;;;;15.43;9.13;;;;;;;16.79;100.00;101791.16;5199136;28;20238;-70
2023/09/07 01:43:55;;;;;;;18.10;8.40;;;;;;;16.76;100.00;101792.34;5197092;28;20036;-70
2023/09/07 01:46:26;;;;;;;14.18;9.18;;;;;;;16.74;100.00;101791.72;5196171;28;20569;-70
2023/09/07 01:48:56;;;;;;;12.88;9.00;;;;;;;16.70;100.00;101784.94;5186235;28;20029;-71
2023/09/07 01:51:27;;;;;;;16.35;9.48;;;;;;;16.67;100.00;101781.78;5197025;28;20032;-70
2023/09/07 01:53:58;;;;;;;14.80;8.65;;;;;;;16.63;100.00;101784.00;5191373;28;20533;-70
2023/09/07 01:56:28;;;;;;;14.05;8.90;;;;;;;16.55;100.00;101786.78;5181709;28;20034;-70
2023/09/07 01:58:59;;;;;;;17.02;9.55;;;;;;;16.50;100.00;101786.47;5189985;28;20026;-70
2023/09/07 02:01:31;;;;;;;16.58;9.05;;;;;;;16.46;100.00;101787.84;5183121;28;20029;-70
2023/09/07 02:04:02;;;;;;;16.13;9.45;;;;;;;16.42;100.00;101787.41;5200095;28;20056;-70
2023/09/07 02:06:33;;;;;;;15.13;9.05;;;;;;;16.40;100.00;101786.72;5185612;28;20030;-71
2023/09/07 02:09:04;;;;;;;14.98;9.32;;;;;;;16.37;100.00;101788.97;5189943;28;20039;-70
2023/09/07 02:11:34;;;;;;;15.60;8.95;;;;;;;16.31;100.00;101790.50;5198355;28;20075;-70
2023/09/07 02:14:05;;;;;;;16.15;9.38;;;;;;;16.27;100.00;101797.34;5191799;28;20034;-70
2023/09/07 02:16:36;;;;;;;16.95;9.13;;;;;;;16.24;100.00;101790.41;5199104;28;20099;-70
2023/09/07 02:19:06;;;;;;;17.08;9.77;;;;;;;16.23;100.00;101793.31;5195034;28;20112;-70
2023/09/07 02:21:38;;;;;;;15.25;8.60;;;;;;;16.18;100.00;101796.56;5188026;28;20068;-70
2023/09/07 02:24:08;;;;;;;16.38;8.70;;;;;;;16.16;100.00;101795.03;5194330;28;20465;-70
2023/09/07 02:26:44;;;;;;;17.23;10.05;;;;;;;16.17;100.00;101796.75;5189618;28;20033;-70
2023/09/07 02:29:15;;;;;;;14.10;9.82;;;;;;;16.14;100.00;101797.94;5190671;28;20029;-70
2023/09/07 02:31:45;;;;;;;17.98;10.50;;;;;;;16.08;100.00;101797.81;5196794;28;20027;-70
2023/09/07 02:34:16;;;;;;;15.02;9.82;;;;;;;16.07;100.00;101796.97;5191523;28;20034;-70
2023/09/07 02:36:46;;;;;;;19.83;10.68;;;;;;;16.04;100.00;101794.63;5195210;28;20116;-70
2023/09/07 02:39:17;;;;;;;16.73;9.35;;;;;;;16.01;100.00;101795.81;5188699;28;20033;-70
2023/09/07 02:41:47;;;;;;;15.50;9.65;;;;;;;15.97;100.00;101785.53;5193271;28;20610;-70
2023/09/07 02:44:18;;;;;;;16.83;9.82;;;;;;;15.96;100.00;101789.25;5193620;28;20540;-70
2023/09/07 02:46:49;;;;;;;13.05;9.02;;;;;;;15.92;100.00;101793.34;5193833;28;20036;-70
2023/09/07 02:49:19;;;;;;;14.10;9.02;;;;;;;15.90;100.00;101788.09;5193902;28;20037;-70
2023/09/07 02:51:50;;;;;;;14.60;9.77;;;;;;;15.89;100.00;101791.00;5195158;28;20044;-70
2023/09/07 02:54:20;;;;;;;17.92;10.07;;;;;;;15.87;100.00;101785.75;5190342;28;20483;-70
2023/09/07 02:56:51;;;;;;;13.50;8.98;;;;;;;15.84;100.00;101793.38;5183721;28;20048;-70
2023/09/07 02:59:21;;;;;;;16.83;9.88;;;;;;;15.76;100.00;101787.00;5196219;28;20072;-70
2023/09/07 03:01:52;;;;;;;13.48;9.15;;;;;;;15.72;100.00;101793.78;5197990;28;20124;-70
2023/09/07 03:04:23;;;;;;;15.18;8.95;;;;;;;15.69;100.00;101796.00;5192512;28;20052;-70
2023/09/07 03:06:53;;;;;;;21.15;10.05;;;;;;;15.69;100.00;101798.69;5198391;28;20022;-70
2023/09/07 03:09:24;;;;;;;18.95;10.50;;;;;;;15.67;100.00;101793.47;5189585;28;20037;-71
2023/09/07 03:11:54;;;;;;;15.68;9.70;;;;;;;15.65;100.00;101794.66;5182347;28;20475;-70
2023/09/07 03:14:25;;;;;;;15.73;10.13;;;;;;;15.63;100.00;101789.44;5191965;28;20021;-70
2023/09/07 03:16:56;;;;;;;16.77;9.82;;;;;;;15.61;100.00;101794.13;5185362;28;20068;-69
2023/09/07 03:19:26;;;;;;;13.15;8.93;;;;;;;15.61;100.00;101791.41;5185154;28;20068;-69
2023/09/07 03:21:57;;;;;;;16.75;10.00;;;;;;;15.60;100.00;101788.91;5181628;28;20029;-70
2023/09/07 03:24:28;;;;;;;15.10;10.43;;;;;;;15.60;100.00;101791.59;5186707;28;20028;-70
2023/09/07 03:26:58;;;;;;;16.05;10.50;;;;;;;15.58;100.00;101789.09;5194133;28;20112;-70
2023/09/07 03:29:30;;;;;;;16.38;10.38;;;;;;;15.55;100.00;101784.03;5187395;28;20025;-70
2023/09/07 03:32:00;;;;;;;22.25;10.57;;;;;;;15.54;100.00;101790.47;5193173;28;20598;-70
2023/09/07 03:34:31;;;;;;;16.38;9.02;;;;;;;15.49;100.00;101796.38;5197987;28;20018;-70
2023/09/07 03:37:02;;;;;;;18.30;9.02;;;;;;;15.46;100.00;101788.66;5188284;28;20441;-70
2023/09/07 03:39:33;;;;;;;14.52;9.88;;;;;;;15.45;100.00;101800.47;5202562;28;20029;-70
2023/09/07 03:42:03;;;;;;;14.70;9.27;;;;;;;15.40;100.00;101792.03;5201011;28;20390;-69
2023/09/07 03:44:34;;;;;;;15.85;9.50;;;;;;;15.37;100.00;101795.09;5187586;28;20017;-70
2023/09/07 03:47:04;;;;;;;14.68;9.15;;;;;;;15.37;100.00;101800.50;5192482;28;20045;-70
2023/09/07 03:49:35;;;;;;;19.80;10.65;;;;;;;15.34;100.00;101800.00;5188291;28;20084;-70
2023/09/07 03:52:05;;;;;;;19.23;9.70;;;;;;;15.31;100.00;101790.38;5200222;28;20021;-70
2023/09/07 03:54:36;;;;;;;16.77;10.63;;;;;;;15.28;100.00;101794.28;5197803;28;20040;-70
2023/09/07 03:57:06;;;;;;;15.70;9.02;;;;;;;15.27;100.00;101789.91;5187985;28;20021;-70
2023/09/07 03:59:37;;;;;;;15.52;9.13;;;;;;;15.24;100.00;101792.94;5190762;28;20022;-70
2023/09/07 04:02:08;;;;;;;16.38;8.88;;;;;;;15.19;100.00;101792.59;5202376;28;20103;-70
2023/09/07 04:04:38;;;;;;;12.05;7.75;;;;;;;15.12;100.00;101796.19;5199282;28;20026;-70
2023/09/07 04:07:09;;;;;;;13.90;8.20;;;;;;;15.06;100.00;101783.34;5192063;28;20021;-70
2023/09/07 04:09:39;;;;;;;12.48;7.10;;;;;;;15.02;100.00;101796.38;5185373;28;20068;-70
2023/09/07 04:12:10;;;;;;;11.50;8.00;;;;;;;14.98;100.00;101792.34;5190797;28;20104;-70
2023/09/07 04:14:41;;;;;;;13.35;8.63;;;;;;;14.95;100.00;101787.25;5196195;28;20056;-70
2023/09/07 04:17:12;;;;;;;13.82;8.68;;;;;;;14.92;100.00;101793.03;5203423;28;20056;-70
2023/09/07 04:19:43;;;;;;;11.93;7.28;;;;;;;14.92;100.00;101791.16;5193597;28;20022;-70
2023/09/07 04:22:14;;;;;;;11.88;7.97;;;;;;;14.91;100.00;101789.50;5196861;28;20022;-70
2023/09/07 04:24:48;;;;;;;16.48;8.75;;;;;;;14.91;100.00;101785.91;5195232;28;20021;-70
2023/09/07 04:27:19;;;;;;;14.73;9.27;;;;;;;14.90;100.00;101787.78;5192736;28;20033;-70
2023/09/07 04:29:49;;;;;;;12.20;7.47;;;;;;;14.88;100.00;101791.69;5193328;28;20025;-70
2023/09/07 04:32:20;;;;;;;13.45;8.20;;;;;;;14.85;100.00;101797.41;5197007;28;20029;-70
2023/09/07 04:34:55;;;;;;;17.05;9.60;;;;;;;14.79;100.00;101787.31;5190750;28;20036;-70
2023/09/07 04:37:26;;;;;;;16.80;7.68;;;;;;;14.75;100.00;101784.94;5193044;28;20227;-70
2023/09/07 04:39:56;;;;;;;13.48;8.45;;;;;;;14.74;100.00;101785.94;5190276;28;20026;-70
2023/09/07 04:42:27;;;;;;;11.88;7.22;;;;;;;14.72;100.00;101792.56;5194512;28;20029;-70
2023/09/07 04:44:57;;;;;;;15.75;9.48;;;;;;;14.71;100.00;101791.72;5191171;28;20025;-70
2023/09/07 04:47:28;;;;;;;18.38;10.10;;;;;;;14.71;100.00;101790.88;5191791;28;20117;-70
2023/09/07 04:49:58;;;;;;;15.38;9.50;;;;;;;14.69;100.00;101801.81;5187496;28;20025;-70
2023/09/07 04:52:29;;;;;;;22.38;9.95;;;;;;;14.71;100.00;101805.22;5186025;28;20398;-70
2023/09/07 04:54:59;;;;;;;19.35;8.93;;;;;;;14.71;100.00;101807.06;5191596;28;20083;-70
2023/09/07 04:57:30;;;;;;;15.57;9.77;;;;;;;14.70;100.00;101800.81;5183571;28;20021;-70
2023/09/07 05:00:03;;;;;;;12.15;7.45;;;;;;;14.69;100.00;101803.69;5195838;28;20390;-70
2023/09/07 05:02:38;;;;;;;17.88;9.10;;;;;;;14.67;100.00;101803.03;5194657;28;20025;-70
2023/09/07 05:05:09;;;;;;;16.92;9.75;;;;;;;14.64;100.00;101806.06;5194010;28;20034;-70
2023/09/07 05:07:39;;;;;;;22.40;9.68;;;;;;;14.63;100.00;101807.91;5199084;28;20375;-70
2023/09/07 05:10:12;;;;;;;13.75;7.70;;;;;;;14.62;100.00;101810.78;5195593;28;20021;-70
2023/09/07 05:12:42;;;;;;;11.02;6.68;;;;;;;14.59;100.00;101811.13;5195191;28;20100;-70
2023/09/07 05:15:13;;;;;;;10.55;7.40;;;;;;;14.55;100.00;101818.69;5193770;28;20037;-70
2023/09/07 05:17:43;;;;;;;15.73;8.35;;;;;;;14.54;100.00;101818.88;5183147;28;20025;-70
2023/09/07 05:20:14;;;;;;;17.23;9.13;;;;;;;14.55;100.00;101823.25;5194006;28;20021;-70
2023/09/07 05:22:45;;;;;;;11.95;6.85;;;;;;;14.54;100.00;101825.13;5203041;28;20048;-70
2023/09/07 05:25:16;;;;;;;16.30;8.68;;;;;;;14.53;100.00;101826.13;5194061;28;20029;-70
2023/09/07 05:27:46;;;;;;;23.95;9.85;;;;;;;14.55;100.00;101831.38;5194319;28;20028;-70
2023/09/07 05:30:17;;;;;;;14.20;6.57;;;;;;;14.57;100.00;101835.59;5185848;28;20038;-70
2023/09/07 05:32:47;;;;;;;9.85;7.05;;;;;;;14.58;100.00;101839.97;5191853;28;20025;-70
2023/09/07 05:35:18;;;;;;;11.82;7.05;;;;;;;14.60;100.00;101846.03;5193044;28;20032;-70
2023/09/07 05:37:49;;;;;;;10.90;6.45;;;;;;;14.59;100.00;101849.75;5201543;28;20025;-70
2023/09/07 05:40:19;;;;;;;19.73;8.23;;;;;;;14.62;100.00;101849.44;5187389;28;20088;-70
2023/09/07 05:42:50;;;;;;;14.80;6.72;;;;;;;14.65;100.00;101849.09;5189320;28;20490;-70
2023/09/07 05:45:21;;;;;;;15.93;8.15;;;;;;;14.67;100.00;101851.63;5185397;28;20026;-70
2023/09/07 05:47:51;;;;;;;16.05;9.05;;;;;;;14.71;100.00;101847.59;5191057;28;20046;-70
2023/09/07 05:50:22;;;;;;;22.15;10.00;;;;;;;14.75;100.00;101847.06;5188336;28;20032;-70
2023/09/07 05:52:52;;;;;;;13.98;8.20;;;;;;;14.82;100.00;101846.41;5195785;28;20021;-70
2023/09/07 05:55:23;;;;;;;18.23;10.57;;;;;;;14.87;100.00;101854.84;5195448;28;20032;-70
2023/09/07 05:57:54;;;;;;;15.77;10.10;;;;;;;14.95;100.00;101855.66;5198372;28;20026;-70
2023/09/07 06:00:25;;;;;;;22.95;13.18;;;;;;;15.27;100.00;101851.22;5186908;28;20025;-70
2023/09/07 06:02:56;;;;;;;25.27;13.85;;;;;;;15.88;100.00;101852.38;5194343;28;20037;-70
2023/09/07 06:05:26;;;;;;;26.05;13.48;;;;;;;16.61;100.00;101864.59;5198072;28;20100;-71
2023/09/07 06:08:03;;;;;;;19.10;11.55;;;;;;;17.34;100.00;101860.41;5184831;28;20116;-70
2023/09/07 06:10:34;;;;;;;18.85;11.27;;;;;;;18.05;100.00;101856.16;5174814;28;20024;-71
2023/09/07 06:13:05;;;;;;;19.88;11.90;;;;;;;18.65;100.00;101856.78;5195089;28;20044;-71
2023/09/07 06:15:36;;;;;;;23.65;12.50;;;;;;;19.27;100.00;101850.59;5186325;28;20014;-71
2023/09/07 06:18:06;;;;;;;17.92;11.25;;;;;;;19.82;100.00;101854.28;5196420;28;20040;-71
2023/09/07 06:20:37;;;;;;;15.98;10.32;;;;;;;20.46;100.00;101855.72;5187503;28;20032;-71
2023/09/07 06:23:07;;;;;;;17.02;10.73;;;;;;;20.83;100.00;101856.19;5195797;28;20041;-71
2023/09/07 06:25:38;;;;;;;18.45;10.90;;;;;;;21.17;100.00;101855.97;5187415;28;20021;-71
2023/09/07 06:28:16;;;;;;;17.95;10.65;;;;;;;21.55;100.00;101854.47;5198958;28;20032;-71
2023/09/07 06:30:46;;;;;;;16.33;10.98;;;;;;;21.88;100.00;101857.06;5164869;28;20034;-71
2023/09/07 06:33:17;;;;;;;19.35;10.68;;;;;;;22.19;100.00;101848.13;5198446;28;20030;-71
2023/09/07 06:35:47;;;;;;;18.77;10.50;;;;;;;22.45;100.00;101849.84;5191385;28;20029;-71
2023/09/07 06:38:18;;;;;;;18.70;10.60;;;;;;;22.72;100.00;101848.59;5191698;28;20056;-71
2023/09/07 06:40:49;;;;;;;18.67;9.90;;;;;;;22.92;100.00;101851.19;5194536;28;20017;-71
2023/09/07 06:43:20;;;;;;;19.75;10.63;;;;;;;23.21;100.00;101851.56;5184630;28;20104;-72
2023/09/07 06:45:51;;;;;;;18.83;9.63;;;;;;;23.40;100.00;101853.25;5183744;28;20025;-72
2023/09/07 06:48:21;;;;;;;19.77;10.23;;;;;;;23.55;100.00;101850.16;5185093;28;20076;-72
2023/09/07 06:50:52;;;;;;;15.77;9.63;;;;;;;23.68;100.00;101844.53;5179159;28;21197;-71
2023/09/07 06:53:22;;;;;;;13.10;9.00;;;;;;;23.86;100.00;101845.59;5188450;28;20073;-72
2023/09/07 06:56:01;;;;;;;13.07;9.13;;;;;;;24.00;100.00;101853.41;5184146;28;20156;-71
2023/09/07 06:58:34;;;;;;;13.95;8.63;;;;;;;24.16;100.00;101848.34;5180271;28;20034;-72
2023/09/07 07:01:04;;;;;;;15.98;9.07;;;;;;;24.40;100.00;101850.13;5191189;28;20026;-72
2023/09/07 07:03:35;;;;;;;12.32;7.82;;;;;;;24.66;100.00;101851.63;5180324;28;20593;-71
2023/09/07 07:06:05;;;;;;;14.23;9.10;;;;;;;24.85;100.00;101844.13;5186206;28;20459;-71
2023/09/07 07:08:36;;;;;;;13.43;7.93;;;;;;;25.07;100.00;101847.16;5192387;28;20032;-71
2023/09/07 07:11:08;;;;;;;16.10;8.60;;;;;;;25.22;100.00;101847.50;5188231;28;20067;-71
2023/09/07 07:13:38;;;;;;;11.82;7.55;;;;;;;25.37;100.00;101847.03;5188916;28;20037;-72
2023/09/07 07:16:09;;;;;;;11.43;7.55;;;;;;;25.60;100.00;101850.78;5183474;28;20364;-72
2023/09/07 07:18:39;;;;;;;14.73;7.07;;;;;;;25.62;100.00;101848.66;5189984;28;20640;-71
2023/09/07 07:21:10;;;;;;;15.10;7.45;;;;;;;25.76;100.00;101847.34;5189722;28;20100;-72
2023/09/07 07:23:40;;;;;;;13.68;6.82;;;;;;;25.79;100.00;101853.16;5181753;28;20025;-72
2023/09/07 07:26:11;;;;;;;11.10;7.05;;;;;;;25.98;100.00;101842.00;5189355;28;20026;-72
2023/09/07 07:28:41;;;;;;;11.80;6.68;;;;;;;26.13;100.00;101853.28;5197380;28;20030;-72
2023/09/07 07:31:12;;;;;;;13.40;7.30;;;;;;;26.32;100.00;101843.75;5193261;28;20494;-73
2023/09/07 07:33:42;;;;;;;10.55;6.80;;;;;;;26.34;100.00;101849.00;5185293;28;20049;-72
2023/09/07 07:36:13;;;;;;;11.45;6.60;;;;;;;26.65;100.00;101844.06;5186310;28;20029;-72
2023/09/07 07:38:43;;;;;;;15.23;6.78;;;;;;;26.71;100.00;101843.91;5182591;28;20026;-72
2023/09/07 07:41:14;;;;;;;11.57;6.50;;;;;;;26.67;100.00;101842.75;5184599;28;20048;-72
2023/09/07 07:43:44;;;;;;;12.50;7.00;;;;;;;26.90;100.00;101847.22;5190132;28;20104;-72
2023/09/07 07:46:15;;;;;;;11.07;6.55;;;;;;;26.91;100.00;101840.66;5190492;28;20018;-72
2023/09/07 07:48:46;;;;;;;10.77;6.10;;;;;;;26.95;100.00;101839.03;5188725;28;20033;-73
2023/09/07 07:51:17;;;;;;;9.73;5.45;;;;;;;27.10;100.00;101839.31;5187480;28;20037;-73
2023/09/07 07:53:47;;;;;;;11.25;5.93;;;;;;;27.42;100.00;101824.91;5186315;28;20044;-72
2023/09/07 07:56:18;;;;;;;10.43;5.75;;;;;;;27.64;100.00;101827.66;5182239;28;20080;-72
2023/09/07 07:58:49;;;;;;;10.25;6.07;;;;;;;27.74;100.00;101827.81;5191671;28;20116;-73
2023/09/07 08:01:20;;;;;;;9.30;5.85;;;;;;;27.78;100.00;101826.19;5185887;28;20026;-72
2023/09/07 08:03:52;;;;;;;13.18;5.82;;;;;;;27.81;100.00;101827.59;5181541;28;20379;-72
2023/09/07 08:06:22;;;;;;;9.23;5.55;;;;;;;28.00;100.00;101828.09;5188870;28;20033;-72
2023/09/07 08:08:53;;;;;;;8.55;5.28;;;;;;;28.17;100.00;101825.25;5183910;28;20033;-73
2023/09/07 08:11:25;;;;;;;9.70;5.32;;;;;;;28.13;100.00;101822.16;5186884;28;20038;-72
2023/09/07 08:13:56;;;;;;;11.80;5.13;;;;;;;28.29;100.00;101823.97;5191102;28;20061;-72
2023/09/07 08:16:26;;;;;;;9.63;5.15;;;;;;;28.50;100.00;101822.25;5181318;28;20521;-72
2023/09/07 08:18:57;;;;;;;7.78;4.93;;;;;;;28.64;100.00;101825.44;5185897;28;20030;-72
2023/09/07 08:21:27;;;;;;;9.75;4.90;;;;;;;28.46;100.00;101817.53;5188793;28;20049;-73
2023/09/07 08:23:57;;;;;;;11.02;5.78;;;;;;;28.44;100.00;101819.72;5196847;28;20552;-72
2023/09/07 08:26:28;;;;;;;11.05;5.75;;;;;;;28.61;100.00;101817.66;5188380;28;20026;-72
2023/09/07 08:28:58;;;;;;;16.27;10.07;;;;;;;28.79;100.00;101820.03;5180076;28;20025;-72
2023/09/07 08:31:29;;;;;;;10.48;5.25;;;;;;;28.88;100.00;101821.19;5195915;28;20116;-72
2023/09/07 08:34:02;;;;;;;7.63;5.28;;;;;;;29.10;100.00;101812.78;5183491;28;20059;-72
2023/09/07 08:36:34;;;;;;;4.93;4.18;;;;;;;29.22;100.00;101814.50;5182108;28;20486;-72
2023/09/07 08:39:07;;;;;;;11.20;4.82;;;;;;;29.40;100.00;101808.53;5193704;28;20076;-73
2023/09/07 08:41:43;;;;;;;9.73;4.75;;;;;;;29.44;100.00;101812.44;5193090;28;20112;-72
2023/09/07 08:44:17;;;;;;;9.40;4.35;;;;;;;29.73;100.00;101815.63;5189262;28;20025;-72
2023/09/07 08:46:51;;;;;;;6.00;4.47;;;;;;;29.86;100.00;101815.09;5184792;28;20041;-73
2023/09/07 08:49:23;;;;;;;8.20;4.75;;;;;;;29.97;100.00;101817.88;5184875;28;20030;-72
2023/09/07 08:51:58;;;;;;;7.97;4.38;;;;;;;30.12;100.00;101813.25;5185653;28;20107;-73
2023/09/07 08:54:30;;;;;;;7.18;4.22;;;;;;;30.15;100.00;101809.94;5180829;28;20106;-73
2023/09/07 08:57:03;;;;;;;7.57;3.83;;;;;;;30.34;100.00;101814.94;5184904;28;20026;-72
2023/09/07 08:59:34;;;;;;;10.40;4.57;;;;;;;30.45;100.00;101811.06;5182835;28;20026;-72
2023/09/07 09:02:09;;;;;;;7.93;4.53;;;;;;;30.48;100.00;101801.41;5187064;28;20406;-72
2023/09/07 09:04:39;;;;;;;6.03;4.55;;;;;;;30.43;100.00;101805.00;5184703;28;20030;-72
2023/09/07 09:07:10;;;;;;;6.68;4.20;;;;;;;30.49;100.00;101809.41;5182586;28;20045;-72
2023/09/07 09:09:40;;;;;;;6.20;4.43;;;;;;;30.41;100.00;101804.41;5181872;28;20141;-72
2023/09/07 09:12:12;;;;;;;5.18;3.95;;;;;;;30.67;100.00;101797.78;5181832;28;20026;-72
2023/09/07 09:14:44;;;;;;;6.00;4.07;;;;;;;30.63;100.00;101802.22;5190957;28;20585;-72
2023/09/07 09:17:15;;;;;;;6.82;4.28;;;;;;;30.66;100.00;101798.88;5189671;28;20387;-72
2023/09/07 09:19:46;;;;;;;6.03;3.70;;;;;;;30.82;100.00;101798.88;5186548;28;20033;-73
2023/09/07 09:22:17;;;;;;;6.75;3.85;;;;;;;31.17;100.00;101790.47;5186645;28;20087;-73
2023/09/07 09:24:48;;;;;;;5.93;3.63;;;;;;;31.38;100.00;101802.38;5187267;28;20057;-73
2023/09/07 09:27:19;;;;;;;7.93;4.13;;;;;;;31.43;100.00;101799.59;5190592;28;20059;-72
2023/09/07 09:29:50;;;;;;;6.82;3.78;;;;;;;31.30;100.00;101799.34;5178562;28;20301;-73
2023/09/07 09:32:21;;;;;;;9.00;4.28;;;;;;;31.37;100.00;101799.88;5184397;28;20030;-73
2023/09/07 09:34:51;;;;;;;12.23;4.50;;;;;;;31.63;100.00;101798.66;5179878;28;20060;-72
2023/09/07 09:37:23;;;;;;;5.47;3.80;;;;;;;31.17;100.00;101792.44;5188002;28;20109;-73
2023/09/07 09:39:56;;;;;;;8.07;3.53;;;;;;;31.48;100.00;101798.75;5188880;28;20060;-72
2023/09/07 09:42:27;;;;;;;5.88;3.80;;;;;;;31.62;100.00;101801.72;5186681;28;20087;-72
2023/09/07 09:44:59;;;;;;;9.73;3.67;;;;;;;31.64;100.00;101782.84;5186625;28;20033;-72
2023/09/07 09:47:33;;;;;;;8.18;3.38;;;;;;;31.63;100.00;101792.25;5194819;28;20494;-73
2023/09/07 09:50:07;;;;;;;6.28;3.53;;;;;;;31.65;100.00;101782.56;5184618;28;20052;-73
2023/09/07 09:52:38;;;;;;;6.93;3.65;;;;;;;31.24;100.00;101781.88;5192532;28;20029;-73
2023/09/07 09:55:12;;;;;;;7.18;4.40;;;;;;;31.20;100.00;101778.84;5186104;28;20627;-73
2023/09/07 09:57:43;;;;;;;6.80;3.28;;;;;;;31.29;100.00;101781.06;5188384;28;20033;-73
2023/09/07 10:00:25;;;;;;;9.02;3.58;;;;;;;31.23;100.00;101773.84;5190406;28;20037;-72
2023/09/07 10:03:04;;;;;;;5.45;3.28;;;;;;;31.43;100.00;101780.19;5188562;28;20068;-73
2023/09/07 10:05:34;;;;;;;6.15;3.67;;;;;;;31.46;100.00;101785.13;5186004;28;20034;-73
2023/09/07 10:08:11;;;;;;;5.97;3.20;;;;;;;31.51;100.00;101781.53;5186440;28;20121;-73
2023/09/07 10:10:44;;;;;;;6.93;3.58;;;;;;;31.31;100.00;101776.88;5184178;28;20025;-73
2023/09/07 10:13:15;;;;;;;7.75;4.00;;;;;;;30.91;100.00;101767.56;5192644;28;20112;-73
2023/09/07 10:15:46;;;;;;;5.97;3.58;;;;;;;30.75;100.00;101777.03;5182715;28;20025;-73
2023/09/07 10:18:18;;;;;;;4.32;3.30;;;;;;;30.42;100.00;101775.63;5180626;28;20032;-73
2023/09/07 10:20:50;;;;;;;3.95;3.08;;;;;;;30.42;100.00;101762.63;5180168;28;20518;-73
2023/09/07 10:23:20;;;;;;;5.93;3.20;;;;;;;30.47;100.00;101766.47;5191486;28;20044;-73
2023/09/07 10:25:52;;;;;;;7.85;4.00;;;;;;;30.53;100.00;101763.47;5190589;28;20483;-73
2023/09/07 10:28:25;;;;;;;3.90;2.88;;;;;;;30.63;100.00;101752.38;5190061;28;20061;-73
2023/09/07 10:31:00;;;;;;;5.85;3.40;;;;;;;30.74;100.00;101752.38;5195123;28;20075;-73
2023/09/07 10:33:33;;;;;;;4.05;2.85;;;;;;;30.80;100.00;101748.47;5185257;28;20048;-73
2023/09/07 10:36:04;;;;;;;4.55;3.20;;;;;;;30.80;100.00;101751.25;5188223;28;20167;-73
2023/09/07 10:38:35;;;;;;;5.82;3.45;;;;;;;30.83;100.00;101753.47;5189871;28;20037;-72
2023/09/07 10:41:06;;;;;;;5.30;3.03;;;;;;;30.85;100.00;101754.00;5187794;28;20089;-73
2023/09/07 10:43:47;;;;;;;6.45;3.38;;;;;;;30.96;100.00;101747.31;5188683;28;20452;-73
2023/09/07 10:46:21;;;;;;;6.50;3.17;;;;;;;30.99;100.00;101744.00;5179605;28;20099;-73
2023/09/07 10:48:53;;;;;;;3.88;3.33;;;;;;;31.07;100.00;101746.19;5185894;28;20041;-72
2023/09/07 10:51:23;;;;;;;4.35;3.40;;;;;;;31.07;100.00;101746.19;5183207;28;20033;-73
2023/09/07 10:53:55;;;;;;;5.47;3.17;;;;;;;31.11;100.00;101735.38;5186459;28;20486;-73
2023/09/07 10:56:26;;;;;;;4.50;3.05;;;;;;;31.17;100.00;101748.09;5186134;28;20536;-73
2023/09/07 10:58:57;;;;;;;4.72;2.83;;;;;;;31.30;100.00;101741.97;5184232;28;20022;-73
2023/09/07 11:01:27;;;;;;;5.10;2.97;;;;;;;31.24;100.00;101737.53;5191333;28;20509;-73
2023/09/07 11:03:58;;;;;;;5.20;3.15;;;;;;;31.05;100.00;101731.78;5185158;28;20692;-73
2023/09/07 11:06:28;;;;;;;5.13;3.17;;;;;;;30.97;100.00;101737.91;5190442;28;20026;-73
2023/09/07 11:09:00;;;;;;;4.40;3.50;;;;;;;30.98;100.00;101733.19;5180965;28;20056;-73
2023/09/07 11:11:33;;;;;;;5.95;3.38;;;;;;;31.01;100.00;101732.63;5184830;28;20430;-73
2023/09/07 11:14:05;;;;;;;4.15;3.22;;;;;;;31.09;100.00;101732.88;5188340;28;20037;-73
2023/09/07 11:16:36;;;;;;;5.55;3.35;;;;;;;31.08;100.00;101733.19;5182610;28;20026;-73
2023/09/07 11:19:08;;;;;;;5.70;3.55;;;;;;;31.04;100.00;101730.13;5177767;28;20026;-73
2023/09/07 11:21:39;;;;;;;5.28;3.08;;;;;;;31.10;100.00;101720.69;5181171;28;20029;-73
2023/09/07 11:24:10;;;;;;;6.28;2.95;;;;;;;31.13;100.00;101730.38;5179498;28;20471;-73
2023/09/07 11:26:43;;;;;;;5.47;3.30;;;;;;;31.29;100.00;101718.16;5184264;28;20068;-73